sensor_id;sensor_type;location;lat;lon;timestamp;P1;durP1;ratioP1;P2;durP2;ratioP2
48034;SDS011;33812;46.480;6.834;2023-05-29T00:00:26;5.03;;;3.00;;
48034;SDS011;33812;46.480;6.834;2023-05-29T00:04:27;7.57;;;3.38;;
48034;SDS011;33812;46.480;6.834;2023-05-29T00:08:31;5.70;;;3.10;;
48034;SDS011;33812;46.480;6.834;2023-05-29T00:12:34;4.70;;;2.90;;
48034;SDS011;33812;46.480;6.834;2023-05-29T00:16:36;3.85;;;3.03;;
48034;SDS011;33812;46.480;6.834;2023-05-29T00:20:38;5.18;;;2.80;;
48034;SDS011;33812;46.480;6.834;2023-05-29T00:24:41;3.78;;;2.80;;
48034;SDS011;33812;46.480;6.834;2023-05-29T00:28:46;5.38;;;3.35;;
48034;SDS011;33812;46.480;6.834;2023-05-29T00:32:57;5.35;;;3.00;;
48034;SDS011;33812;46.480;6.834;2023-05-29T00:37:09;4.70;;;3.05;;
48034;SDS011;33812;46.480;6.834;2023-05-29T00:41:13;3.97;;;3.25;;
48034;SDS011;33812;46.480;6.834;2023-05-29T00:45:17;5.47;;;2.70;;
48034;SDS011;33812;46.480;6.834;2023-05-29T00:49:23;4.60;;;2.92;;
48034;SDS011;33812;46.480;6.834;2023-05-29T00:53:26;5.03;;;2.85;;
48034;SDS011;33812;46.480;6.834;2023-05-29T00:57:32;4.13;;;2.72;;
48034;SDS011;33812;46.480;6.834;2023-05-29T01:01:39;3.90;;;3.03;;
48034;SDS011;33812;46.480;6.834;2023-05-29T01:05:45;3.10;;;2.45;;
48034;SDS011;33812;46.480;6.834;2023-05-29T01:09:47;4.38;;;2.92;;
48034;SDS011;33812;46.480;6.834;2023-05-29T01:13:51;3.40;;;2.53;;
48034;SDS011;33812;46.480;6.834;2023-05-29T01:18:03;5.25;;;2.83;;
48034;SDS011;33812;46.480;6.834;2023-05-29T01:22:19;6.03;;;2.80;;
48034;SDS011;33812;46.480;6.834;2023-05-29T01:26:37;4.93;;;3.40;;
48034;SDS011;33812;46.480;6.834;2023-05-29T01:30:55;5.72;;;2.88;;
48034;SDS011;33812;46.480;6.834;2023-05-29T01:35:01;8.27;;;3.20;;
48034;SDS011;33812;46.480;6.834;2023-05-29T01:39:07;4.47;;;2.78;;
48034;SDS011;33812;46.480;6.834;2023-05-29T01:43:13;5.85;;;3.58;;
48034;SDS011;33812;46.480;6.834;2023-05-29T01:47:19;4.85;;;2.88;;
48034;SDS011;33812;46.480;6.834;2023-05-29T01:51:22;4.93;;;2.92;;
48034;SDS011;33812;46.480;6.834;2023-05-29T01:55:24;4.72;;;3.10;;
48034;SDS011;33812;46.480;6.834;2023-05-29T01:59:41;4.93;;;2.70;;
48034;SDS011;33812;46.480;6.834;2023-05-29T02:03:43;6.68;;;2.78;;
48034;SDS011;33812;46.480;6.834;2023-05-29T02:07:45;6.20;;;3.00;;
48034;SDS011;33812;46.480;6.834;2023-05-29T02:11:48;3.28;;;2.47;;
48034;SDS011;33812;46.480;6.834;2023-05-29T02:15:51;4.70;;;2.80;;
48034;SDS011;33812;46.480;6.834;2023-05-29T02:19:55;5.05;;;3.10;;
48034;SDS011;33812;46.480;6.834;2023-05-29T02:23:59;4.70;;;2.90;;
48034;SDS011;33812;46.480;6.834;2023-05-29T02:28:03;4.50;;;2.83;;
48034;SDS011;33812;46.480;6.834;2023-05-29T02:32:08;3.73;;;2.70;;
48034;SDS011;33812;46.480;6.834;2023-05-29T02:36:15;5.72;;;2.88;;
48034;SDS011;33812;46.480;6.834;2023-05-29T02:40:17;6.82;;;3.25;;
48034;SDS011;33812;46.480;6.834;2023-05-29T02:44:19;4.78;;;3.08;;
48034;SDS011;33812;46.480;6.834;2023-05-29T02:48:33;5.97;;;3.00;;
48034;SDS011;33812;46.480;6.834;2023-05-29T02:52:37;3.00;;;2.70;;
48034;SDS011;33812;46.480;6.834;2023-05-29T02:56:41;3.88;;;2.80;;
48034;SDS011;33812;46.480;6.834;2023-05-29T03:00:46;4.35;;;2.88;;
48034;SDS011;33812;46.480;6.834;2023-05-29T03:04:50;3.75;;;2.88;;
48034;SDS011;33812;46.480;6.834;2023-05-29T03:09:00;7.50;;;3.20;;
48034;SDS011;33812;46.480;6.834;2023-05-29T03:13:05;4.93;;;3.08;;
48034;SDS011;33812;46.480;6.834;2023-05-29T03:17:17;4.97;;;2.97;;
48034;SDS011;33812;46.480;6.834;2023-05-29T03:21:20;3.30;;;2.75;;
48034;SDS011;33812;46.480;6.834;2023-05-29T03:25:22;3.58;;;2.78;;
48034;SDS011;33812;46.480;6.834;2023-05-29T03:29:24;6.22;;;3.30;;
48034;SDS011;33812;46.480;6.834;2023-05-29T03:33:28;5.15;;;3.00;;
48034;SDS011;33812;46.480;6.834;2023-05-29T03:37:33;4.80;;;2.80;;
48034;SDS011;33812;46.480;6.834;2023-05-29T03:41:35;4.63;;;2.95;;
48034;SDS011;33812;46.480;6.834;2023-05-29T03:45:36;4.18;;;2.83;;
48034;SDS011;33812;46.480;6.834;2023-05-29T03:49:43;7.10;;;3.20;;
48034;SDS011;33812;46.480;6.834;2023-05-29T03:53:47;4.38;;;3.20;;
48034;SDS011;33812;46.480;6.834;2023-05-29T03:57:48;8.68;;;3.60;;
48034;SDS011;33812;46.480;6.834;2023-05-29T04:01:50;4.28;;;3.30;;
48034;SDS011;33812;46.480;6.834;2023-05-29T04:05:56;4.43;;;2.83;;
48034;SDS011;33812;46.480;6.834;2023-05-29T04:10:11;4.75;;;3.05;;
48034;SDS011;33812;46.480;6.834;2023-05-29T04:14:14;5.68;;;3.33;;
48034;SDS011;33812;46.480;6.834;2023-05-29T04:18:26;5.07;;;2.72;;
48034;SDS011;33812;46.480;6.834;2023-05-29T04:22:53;4.55;;;3.10;;
48034;SDS011;33812;46.480;6.834;2023-05-29T04:26:57;4.35;;;3.03;;
48034;SDS011;33812;46.480;6.834;2023-05-29T04:31:03;6.05;;;3.10;;
48034;SDS011;33812;46.480;6.834;2023-05-29T04:35:07;6.43;;;3.08;;
48034;SDS011;33812;46.480;6.834;2023-05-29T04:39:14;9.15;;;3.20;;
48034;SDS011;33812;46.480;6.834;2023-05-29T04:43:26;3.53;;;3.03;;
48034;SDS011;33812;46.480;6.834;2023-05-29T04:47:28;12.43;;;2.63;;
48034;SDS011;33812;46.480;6.834;2023-05-29T04:55:40;5.03;;;3.10;;
48034;SDS011;33812;46.480;6.834;2023-05-29T04:59:45;6.97;;;3.20;;
48034;SDS011;33812;46.480;6.834;2023-05-29T05:03:52;8.50;;;3.50;;
48034;SDS011;33812;46.480;6.834;2023-05-29T05:07:55;5.25;;;3.33;;
48034;SDS011;33812;46.480;6.834;2023-05-29T05:12:12;6.75;;;2.80;;
48034;SDS011;33812;46.480;6.834;2023-05-29T05:16:15;5.80;;;3.45;;
48034;SDS011;33812;46.480;6.834;2023-05-29T05:24:20;11.13;;;2.95;;
48034;SDS011;33812;46.480;6.834;2023-05-29T05:33:00;8.63;;;4.03;;
48034;SDS011;33812;46.480;6.834;2023-05-29T05:37:04;10.95;;;3.42;;
48034;SDS011;33812;46.480;6.834;2023-05-29T05:41:14;5.93;;;3.42;;
48034;SDS011;33812;46.480;6.834;2023-05-29T05:45:22;11.70;;;5.18;;
48034;SDS011;33812;46.480;6.834;2023-05-29T05:49:26;11.02;;;4.55;;
48034;SDS011;33812;46.480;6.834;2023-05-29T05:53:30;9.32;;;4.93;;
48034;SDS011;33812;46.480;6.834;2023-05-29T05:57:42;43.42;;;5.40;;
48034;SDS011;33812;46.480;6.834;2023-05-29T06:01:49;8.75;;;4.25;;
48034;SDS011;33812;46.480;6.834;2023-05-29T06:05:57;27.38;;;4.38;;
48034;SDS011;33812;46.480;6.834;2023-05-29T06:09:59;8.48;;;3.70;;
48034;SDS011;33812;46.480;6.834;2023-05-29T06:14:27;8.35;;;4.13;;
48034;SDS011;33812;46.480;6.834;2023-05-29T06:18:31;6.90;;;3.92;;
48034;SDS011;33812;46.480;6.834;2023-05-29T06:22:37;10.90;;;4.13;;
48034;SDS011;33812;46.480;6.834;2023-05-29T06:26:41;8.00;;;3.47;;
48034;SDS011;33812;46.480;6.834;2023-05-29T06:30:43;8.20;;;3.40;;
48034;SDS011;33812;46.480;6.834;2023-05-29T06:34:46;19.13;;;4.35;;
48034;SDS011;33812;46.480;6.834;2023-05-29T06:38:59;11.80;;;4.35;;
48034;SDS011;33812;46.480;6.834;2023-05-29T06:43:00;8.75;;;4.60;;
48034;SDS011;33812;46.480;6.834;2023-05-29T06:47:02;7.47;;;3.95;;
48034;SDS011;33812;46.480;6.834;2023-05-29T06:51:07;6.72;;;3.55;;
48034;SDS011;33812;46.480;6.834;2023-05-29T10:37:31;12.27;;;4.63;;
48034;SDS011;33812;46.480;6.834;2023-05-29T10:41:49;8.60;;;4.72;;
48034;SDS011;33812;46.480;6.834;2023-05-29T10:45:58;12.18;;;5.63;;
48034;SDS011;33812;46.480;6.834;2023-05-29T10:54:54;9.37;;;5.20;;
48034;SDS011;33812;46.480;6.834;2023-05-29T10:59:14;11.32;;;4.85;;
48034;SDS011;33812;46.480;6.834;2023-05-29T11:03:29;10.13;;;4.70;;
48034;SDS011;33812;46.480;6.834;2023-05-29T11:07:55;10.13;;;4.80;;
48034;SDS011;33812;46.480;6.834;2023-05-29T11:12:32;8.95;;;5.13;;
48034;SDS011;33812;46.480;6.834;2023-05-29T11:16:42;9.02;;;4.35;;
48034;SDS011;33812;46.480;6.834;2023-05-29T11:20:57;10.43;;;4.32;;
48034;SDS011;33812;46.480;6.834;2023-05-29T11:25:07;15.13;;;5.10;;
48034;SDS011;33812;46.480;6.834;2023-05-29T11:29:26;19.73;;;5.57;;
48034;SDS011;33812;46.480;6.834;2023-05-29T11:33:48;10.90;;;4.88;;
48034;SDS011;33812;46.480;6.834;2023-05-29T11:37:53;7.45;;;4.40;;
48034;SDS011;33812;46.480;6.834;2023-05-29T11:42:06;12.00;;;5.13;;
48034;SDS011;33812;46.480;6.834;2023-05-29T11:46:17;11.07;;;4.40;;
48034;SDS011;33812;46.480;6.834;2023-05-29T11:50:28;8.98;;;4.28;;
48034;SDS011;33812;46.480;6.834;2023-05-29T11:54:50;7.25;;;4.68;;
48034;SDS011;33812;46.480;6.834;2023-05-29T11:58:54;9.40;;;4.28;;
48034;SDS011;33812;46.480;6.834;2023-05-29T12:03:07;7.05;;;4.50;;
48034;SDS011;33812;46.480;6.834;2023-05-29T12:07:16;6.70;;;3.92;;
48034;SDS011;33812;46.480;6.834;2023-05-29T12:11:29;15.02;;;4.90;;
48034;SDS011;33812;46.480;6.834;2023-05-29T12:15:40;8.82;;;4.55;;
48034;SDS011;33812;46.480;6.834;2023-05-29T12:20:09;12.35;;;4.35;;
48034;SDS011;33812;46.480;6.834;2023-05-29T12:24:30;8.68;;;4.35;;
48034;SDS011;33812;46.480;6.834;2023-05-29T12:33:16;13.63;;;4.93;;
48034;SDS011;33812;46.480;6.834;2023-05-29T12:39:04;9.48;;;4.75;;
48034;SDS011;33812;46.480;6.834;2023-05-29T12:42:13;10.25;;;4.15;;
48034;SDS011;33812;46.480;6.834;2023-05-29T12:46:42;12.88;;;4.82;;
48034;SDS011;33812;46.480;6.834;2023-05-29T12:51:16;14.00;;;5.13;;
48034;SDS011;33812;46.480;6.834;2023-05-29T12:55:32;11.50;;;4.90;;
48034;SDS011;33812;46.480;6.834;2023-05-29T13:08:24;9.60;;;4.97;;
48034;SDS011;33812;46.480;6.834;2023-05-29T13:12:32;7.35;;;4.57;;
48034;SDS011;33812;46.480;6.834;2023-05-29T13:16:35;7.43;;;4.18;;
48034;SDS011;33812;46.480;6.834;2023-05-29T13:20:36;5.57;;;4.22;;
48034;SDS011;33812;46.480;6.834;2023-05-29T13:24:46;8.90;;;4.45;;
48034;SDS011;33812;46.480;6.834;2023-05-29T13:28:59;4.93;;;3.93;;
48034;SDS011;33812;46.480;6.834;2023-05-29T13:33:05;7.38;;;4.53;;
48034;SDS011;33812;46.480;6.834;2023-05-29T13:37:20;6.93;;;4.75;;
48034;SDS011;33812;46.480;6.834;2023-05-29T13:45:51;9.00;;;4.38;;
48034;SDS011;33812;46.480;6.834;2023-05-29T13:49:53;10.05;;;4.13;;
48034;SDS011;33812;46.480;6.834;2023-05-29T13:54:39;6.00;;;4.05;;
48034;SDS011;33812;46.480;6.834;2023-05-29T14:03:19;6.00;;;3.42;;
48034;SDS011;33812;46.480;6.834;2023-05-29T14:07:30;6.93;;;4.22;;
48034;SDS011;33812;46.480;6.834;2023-05-29T14:11:38;6.15;;;3.40;;
48034;SDS011;33812;46.480;6.834;2023-05-29T14:20:37;5.15;;;3.72;;
48034;SDS011;33812;46.480;6.834;2023-05-29T14:25:02;6.80;;;3.85;;
48034;SDS011;33812;46.480;6.834;2023-05-29T14:29:30;8.18;;;3.70;;
48034;SDS011;33812;46.480;6.834;2023-05-29T14:33:32;6.47;;;3.97;;
48034;SDS011;33812;46.480;6.834;2023-05-29T14:38:05;6.78;;;4.47;;
48034;SDS011;33812;46.480;6.834;2023-05-29T14:42:12;5.90;;;3.60;;
48034;SDS011;33812;46.480;6.834;2023-05-29T14:46:33;9.63;;;4.10;;
48034;SDS011;33812;46.480;6.834;2023-05-29T14:50:46;4.50;;;3.75;;
48034;SDS011;33812;46.480;6.834;2023-05-29T14:59:16;6.20;;;3.65;;
48034;SDS011;33812;46.480;6.834;2023-05-29T15:03:23;6.85;;;4.03;;
48034;SDS011;33812;46.480;6.834;2023-05-29T15:07:42;5.57;;;3.88;;
48034;SDS011;33812;46.480;6.834;2023-05-29T15:16:51;7.47;;;4.15;;
48034;SDS011;33812;46.480;6.834;2023-05-29T15:20:58;13.70;;;3.90;;
48034;SDS011;33812;46.480;6.834;2023-05-29T15:25:00;16.98;;;4.40;;
48034;SDS011;33812;46.480;6.834;2023-05-29T15:29:19;5.10;;;3.67;;
48034;SDS011;33812;46.480;6.834;2023-05-29T15:33:58;9.85;;;4.43;;
48034;SDS011;33812;46.480;6.834;2023-05-29T15:38:09;14.30;;;4.70;;
48034;SDS011;33812;46.480;6.834;2023-05-29T15:42:31;22.13;;;5.38;;
48034;SDS011;33812;46.480;6.834;2023-05-29T15:46:33;8.07;;;4.18;;
48034;SDS011;33812;46.480;6.834;2023-05-29T15:50:37;9.90;;;4.30;;
48034;SDS011;33812;46.480;6.834;2023-05-29T15:54:54;10.30;;;4.30;;
48034;SDS011;33812;46.480;6.834;2023-05-29T15:58:56;16.48;;;4.30;;
48034;SDS011;33812;46.480;6.834;2023-05-29T16:03:13;15.80;;;4.63;;
48034;SDS011;33812;46.480;6.834;2023-05-29T16:07:43;17.00;;;5.13;;
48034;SDS011;33812;46.480;6.834;2023-05-29T16:12:08;14.07;;;4.22;;
48034;SDS011;33812;46.480;6.834;2023-05-29T16:16:48;18.27;;;4.40;;
48034;SDS011;33812;46.480;6.834;2023-05-29T16:21:11;17.05;;;5.38;;
48034;SDS011;33812;46.480;6.834;2023-05-29T16:25:39;12.73;;;4.57;;
48034;SDS011;33812;46.480;6.834;2023-05-29T16:29:59;9.25;;;4.38;;
48034;SDS011;33812;46.480;6.834;2023-05-29T16:34:18;12.60;;;3.92;;
48034;SDS011;33812;46.480;6.834;2023-05-29T16:38:33;12.43;;;4.20;;
48034;SDS011;33812;46.480;6.834;2023-05-29T16:47:15;10.30;;;4.40;;
48034;SDS011;33812;46.480;6.834;2023-05-29T16:51:54;6.68;;;4.03;;
48034;SDS011;33812;46.480;6.834;2023-05-29T16:57:38;16.00;;;4.70;;
48034;SDS011;33812;46.480;6.834;2023-05-29T17:01:05;18.77;;;5.20;;
48034;SDS011;33812;46.480;6.834;2023-05-29T17:05:08;9.93;;;4.20;;
48034;SDS011;33812;46.480;6.834;2023-05-29T17:09:16;14.55;;;4.30;;
48034;SDS011;33812;46.480;6.834;2023-05-29T17:13:26;23.13;;;4.63;;
48034;SDS011;33812;46.480;6.834;2023-05-29T17:22:17;8.25;;;4.10;;
48034;SDS011;33812;46.480;6.834;2023-05-29T17:26:26;15.70;;;3.80;;
48034;SDS011;33812;46.480;6.834;2023-05-29T17:31:19;8.57;;;4.57;;
48034;SDS011;33812;46.480;6.834;2023-05-29T17:35:35;26.08;;;6.70;;
48034;SDS011;33812;46.480;6.834;2023-05-29T17:43:57;19.40;;;6.13;;
48034;SDS011;33812;46.480;6.834;2023-05-29T17:48:28;21.25;;;6.10;;
48034;SDS011;33812;46.480;6.834;2023-05-29T17:52:47;20.20;;;5.35;;
48034;SDS011;33812;46.480;6.834;2023-05-29T18:01:46;23.05;;;6.00;;
48034;SDS011;33812;46.480;6.834;2023-05-29T18:07:24;10.55;;;4.72;;
48034;SDS011;33812;46.480;6.834;2023-05-29T18:10:42;22.77;;;5.47;;
48034;SDS011;33812;46.480;6.834;2023-05-29T18:15:18;12.98;;;4.95;;
48034;SDS011;33812;46.480;6.834;2023-05-29T18:24:15;6.18;;;4.40;;
48034;SDS011;33812;46.480;6.834;2023-05-29T18:33:41;9.07;;;4.50;;
48034;SDS011;33812;46.480;6.834;2023-05-29T18:37:46;6.50;;;4.53;;
48034;SDS011;33812;46.480;6.834;2023-05-29T18:41:50;11.85;;;4.38;;
48034;SDS011;33812;46.480;6.834;2023-05-29T18:46:15;9.10;;;4.88;;
48034;SDS011;33812;46.480;6.834;2023-05-29T18:50:59;11.95;;;4.70;;
48034;SDS011;33812;46.480;6.834;2023-05-29T18:55:04;8.82;;;4.82;;
48034;SDS011;33812;46.480;6.834;2023-05-29T18:59:22;10.35;;;4.32;;
48034;SDS011;33812;46.480;6.834;2023-05-29T19:03:31;6.72;;;4.10;;
48034;SDS011;33812;46.480;6.834;2023-05-29T19:07:48;11.57;;;4.20;;
48034;SDS011;33812;46.480;6.834;2023-05-29T19:16:40;6.75;;;3.90;;
48034;SDS011;33812;46.480;6.834;2023-05-29T19:20:46;10.05;;;4.20;;
48034;SDS011;33812;46.480;6.834;2023-05-29T19:25:02;9.55;;;3.85;;
48034;SDS011;33812;46.480;6.834;2023-05-29T19:35:56;8.13;;;3.63;;
48034;SDS011;33812;46.480;6.834;2023-05-29T19:38:52;7.85;;;3.97;;
48034;SDS011;33812;46.480;6.834;2023-05-29T19:42:54;6.80;;;4.10;;
48034;SDS011;33812;46.480;6.834;2023-05-29T19:47:43;7.05;;;3.97;;
48034;SDS011;33812;46.480;6.834;2023-05-29T19:56:51;10.20;;;4.35;;
48034;SDS011;33812;46.480;6.834;2023-05-29T20:01:12;7.15;;;4.00;;
48034;SDS011;33812;46.480;6.834;2023-05-29T20:05:35;7.45;;;4.50;;
48034;SDS011;33812;46.480;6.834;2023-05-29T20:14:14;13.20;;;4.32;;
48034;SDS011;33812;46.480;6.834;2023-05-29T20:18:17;5.93;;;4.07;;
48034;SDS011;33812;46.480;6.834;2023-05-29T20:22:43;17.30;;;3.60;;
48034;SDS011;33812;46.480;6.834;2023-05-29T20:27:08;9.13;;;4.20;;
48034;SDS011;33812;46.480;6.834;2023-05-29T20:31:33;7.70;;;3.72;;
48034;SDS011;33812;46.480;6.834;2023-05-29T20:45:03;10.65;;;4.00;;
48034;SDS011;33812;46.480;6.834;2023-05-29T20:53:39;6.78;;;3.63;;
48034;SDS011;33812;46.480;6.834;2023-05-29T20:57:43;5.43;;;3.75;;
48034;SDS011;33812;46.480;6.834;2023-05-29T21:02:16;7.45;;;4.15;;
48034;SDS011;33812;46.480;6.834;2023-05-29T21:15:56;7.22;;;3.83;;
48034;SDS011;33812;46.480;6.834;2023-05-29T21:20:28;4.70;;;3.72;;
48034;SDS011;33812;46.480;6.834;2023-05-29T21:30:08;5.40;;;3.88;;
48034;SDS011;33812;46.480;6.834;2023-05-29T21:38:37;5.40;;;3.65;;
48034;SDS011;33812;46.480;6.834;2023-05-29T21:42:53;4.75;;;3.53;;
48034;SDS011;33812;46.480;6.834;2023-05-29T21:47:35;6.68;;;3.92;;
48034;SDS011;33812;46.480;6.834;2023-05-29T21:56:25;5.07;;;3.58;;
48034;SDS011;33812;46.480;6.834;2023-05-29T22:00:28;5.07;;;3.28;;
48034;SDS011;33812;46.480;6.834;2023-05-29T22:04:44;5.72;;;3.72;;
48034;SDS011;33812;46.480;6.834;2023-05-29T22:13:19;4.70;;;3.80;;
48034;SDS011;33812;46.480;6.834;2023-05-29T22:17:21;4.20;;;3.17;;
48034;SDS011;33812;46.480;6.834;2023-05-29T22:21:37;5.82;;;3.83;;
48034;SDS011;33812;46.480;6.834;2023-05-29T22:26:03;4.47;;;3.28;;
48034;SDS011;33812;46.480;6.834;2023-05-29T22:50:38;7.35;;;3.90;;
48034;SDS011;33812;46.480;6.834;2023-05-29T22:53:13;7.40;;;3.67;;
48034;SDS011;33812;46.480;6.834;2023-05-29T23:02:10;9.73;;;3.47;;
48034;SDS011;33812;46.480;6.834;2023-05-29T23:06:45;5.43;;;3.65;;
48034;SDS011;33812;46.480;6.834;2023-05-29T23:10:57;9.27;;;3.92;;
48034;SDS011;33812;46.480;6.834;2023-05-29T23:15:59;4.20;;;2.97;;
48034;SDS011;33812;46.480;6.834;2023-05-29T23:20:26;5.40;;;3.40;;
48034;SDS011;33812;46.480;6.834;2023-05-29T23:29:26;8.00;;;3.53;;
48034;SDS011;33812;46.480;6.834;2023-05-29T23:33:29;5.43;;;3.40;;
48034;SDS011;33812;46.480;6.834;2023-05-29T23:37:51;6.15;;;3.67;;
48034;SDS011;33812;46.480;6.834;2023-05-29T23:42:07;6.35;;;3.72;;
48034;SDS011;33812;46.480;6.834;2023-05-29T23:46:30;4.50;;;3.53;;
48034;SDS011;33812;46.480;6.834;2023-05-29T23:59:32;5.53;;;3.30;;
